Martock, United Kingdom
Current Conditions -  °F | °C
As of 9:50 PM on Tuesday 27 Jan 2015 (Local Time) from EGDY Reporting Station
Drizzle Drizzle  
Wind Chill: 40°   Ceiling: 3100
Heat Index: 45°   Visibility: 6mi
Dew Point: 41°   Wind: 9mph
Humidity: 87%   Direction: 220°SW
Pressure: 30.18"   Gusts: NA
Location:  50.97°N, 2.77°W
Report Text: EGDY 272150Z AUTO 22008KT 9000 -DZ SCT017/// BKN031/// 07/05 Q1022
Loading
Personal Weather Stations






























Interactive Weather Map New forecast layout! Learn more

10-Day Weather Forecast

Advertisements
Track Severe Weather on mobile